Time;durP1;ratioP1;P1;durP2;ratioP2;P2;SDS_P1;SDS_P2;PMS_P1;PMS_P2;Temp;Humidity;BMP_temperature;BMP_pressure;BME280_temperature;BME280_humidity;BME280_pressure;Samples;Min_cycle;Max_cycle;Signal;HPM_P1;HPM_P2
2021/10/27 00:00:28;;;;;;;148.50;83.43;;;180.00;2252.80;;;;;;4934221;29;20393;-52
2021/10/27 00:02:54;;;;;;;163.32;94.03;;;180.00;2252.80;;;;;;4933817;29;20114;-53
2021/10/27 00:05:20;;;;;;;108.45;60.15;;;180.00;2252.80;;;;;;4934312;29;20034;-52
2021/10/27 00:07:46;;;;;;;97.35;55.38;;;179.90;2252.80;;;;;;4933755;29;20090;-52
2021/10/27 00:10:12;;;;;;;78.40;49.33;;;179.80;2252.80;;;;;;4933819;29;20024;-52
2021/10/27 00:12:38;;;;;;;43.58;31.63;;;179.90;2252.80;;;;;;4933957;29;20047;-61
2021/10/27 00:15:06;;;;;;;98.05;60.10;;;179.90;2252.80;;;;;;4933722;29;20031;-61
2021/10/27 00:17:33;;;;;;;44.28;31.13;;;179.80;2252.80;;;;;;4933740;29;20038;-51
2021/10/27 00:19:59;;;;;;;54.35;36.58;;;179.90;2252.80;;;;;;4933720;29;20115;-52
2021/10/27 00:22:24;;;;;;;44.50;33.40;;;179.80;2252.80;;;;;;4933320;29;20099;-52
2021/10/27 00:24:50;;;;;;;74.20;42.80;;;179.90;2252.80;;;;;;4933804;29;20058;-52
2021/10/27 00:27:16;;;;;;;110.93;62.10;;;179.90;2252.80;;;;;;4933654;29;20043;-53
2021/10/27 00:29:43;;;;;;;62.92;38.95;;;179.90;2252.80;;;;;;4933588;29;20016;-60
2021/10/27 00:32:09;;;;;;;72.18;41.22;;;179.90;2252.80;;;;;;4933554;29;20032;-52
2021/10/27 00:34:35;;;;;;;71.20;44.65;;;180.00;2252.80;;;;;;4933461;29;20043;-61
2021/10/27 00:37:01;;;;;;;71.82;46.60;;;179.80;2252.80;;;;;;4933560;29;20505;-59
2021/10/27 00:39:27;;;;;;;112.82;67.47;;;179.80;2252.80;;;;;;4933759;29;20155;-53
2021/10/27 00:41:53;;;;;;;122.97;72.80;;;179.80;2252.80;;;;;;4933394;29;20489;-59
2021/10/27 00:44:22;;;;;;;104.82;64.40;;;179.70;2252.80;;;;;;4933707;29;20031;-53
2021/10/27 00:47:01;;;;;;;87.65;53.65;;;179.70;2252.80;;;;;;4933444;29;20443;-60
2021/10/27 00:49:29;;;;;;;76.88;50.33;;;179.50;2252.80;;;;;;4932902;29;20024;-56
2021/10/27 00:51:55;;;;;;;78.43;51.05;;;179.50;2252.80;;;;;;4933063;29;20027;-52
2021/10/27 00:54:22;;;;;;;75.82;48.58;;;179.50;2252.80;;;;;;4932708;29;20114;-53
2021/10/27 00:56:51;;;;;;;224.10;121.43;;;179.50;2252.80;;;;;;4933395;29;20031;-61
2021/10/27 00:59:16;;;;;;;88.43;51.78;;;179.40;2252.80;;;;;;4933120;29;20110;-56
2021/10/27 01:01:42;;;;;;;67.55;44.60;;;179.30;2252.80;;;;;;4932938;29;20053;-52
2021/10/27 01:04:09;;;;;;;54.28;37.80;;;179.20;2252.80;;;;;;4933134;29;20031;-61
2021/10/27 01:06:35;;;;;;;53.08;37.28;;;154.50;2252.80;;;;;;4932796;29;20050;-52
2021/10/27 01:09:01;;;;;;;51.20;38.35;;;154.50;2252.80;;;;;;4933130;29;20122;-52
2021/10/27 01:11:27;;;;;;;53.13;37.03;;;179.30;2252.80;;;;;;4933115;29;20032;-52
2021/10/27 01:13:53;;;;;;;53.97;38.97;;;179.20;2252.80;;;;;;4932785;29;20547;-49
2021/10/27 01:16:19;;;;;;;59.78;39.08;;;179.20;2252.80;;;;;;4933258;29;20032;-52
2021/10/27 01:18:44;;;;;;;67.18;45.25;;;179.20;2252.80;;;;;;4932771;29;20035;-52
2021/10/27 01:21:10;;;;;;;85.35;53.97;;;179.20;2252.80;;;;;;4932897;29;20035;-52
2021/10/27 01:23:36;;;;;;;144.80;91.65;;;179.20;2252.80;;;;;;4932662;29;20032;-52
2021/10/27 01:26:07;;;;;;;123.03;79.50;;;179.20;2252.80;;;;;;4932789;29;20107;-53
2021/10/27 01:28:38;;;;;;;56.97;37.65;;;179.30;2252.80;;;;;;4932629;29;20482;-53
2021/10/27 01:31:03;;;;;;;75.50;49.10;;;179.30;2252.80;;;;;;4932719;29;20379;-52
2021/10/27 01:33:29;;;;;;;89.55;58.08;;;179.30;2252.80;;;;;;4932633;29;20032;-52
2021/10/27 01:35:55;;;;;;;106.88;70.75;;;179.30;2252.80;;;;;;4932691;29;20032;-61
2021/10/27 01:38:20;;;;;;;81.60;52.38;;;179.30;2252.80;;;;;;4933065;29;20529;-52
2021/10/27 01:40:46;;;;;;;79.10;48.70;;;154.50;2252.80;;;;;;4932874;29;20035;-51
2021/10/27 01:43:12;;;;;;;71.70;48.42;;;154.50;2252.80;;;;;;4932757;29;20023;-52
2021/10/27 01:45:38;;;;;;;58.60;42.67;;;154.50;2252.80;;;;;;4932641;29;20118;-51
2021/10/27 01:48:03;;;;;;;83.18;51.72;;;154.50;2252.80;;;;;;4932480;29;20167;-52
2021/10/27 01:50:29;;;;;;;98.15;55.70;;;154.50;2252.80;;;;;;4932639;29;20028;-52
2021/10/27 01:52:55;;;;;;;123.43;69.90;;;154.50;2252.80;;;;;;4932395;29;20035;-52
2021/10/27 01:55:21;;;;;;;125.00;68.20;;;154.50;2252.80;;;;;;4932750;29;20040;-51
2021/10/27 01:57:46;;;;;;;102.07;55.28;;;154.50;2252.80;;;;;;4932723;29;20070;-54
2021/10/27 02:00:13;;;;;;;72.28;43.00;;;179.20;2252.80;;;;;;4932483;29;20086;-53
2021/10/27 02:02:39;;;;;;;99.35;58.15;;;179.20;2252.80;;;;;;4932590;29;20028;-51
2021/10/27 02:05:06;;;;;;;79.43;48.78;;;179.30;2252.80;;;;;;4932583;29;20034;-52
2021/10/27 02:07:32;;;;;;;57.33;36.72;;;179.30;2252.80;;;;;;4935970;29;20042;-52
2021/10/27 02:09:58;;;;;;;50.45;30.73;;;179.40;2252.80;;;;;;4936245;29;20348;-52
2021/10/27 02:12:23;;;;;;;49.25;34.03;;;179.40;2252.80;;;;;;4935903;29;20047;-52
2021/10/27 02:14:49;;;;;;;44.28;28.70;;;179.40;2252.80;;;;;;4936254;29;20359;-52
2021/10/27 02:17:15;;;;;;;135.63;71.97;;;179.50;2252.80;;;;;;4935837;29;20039;-61
2021/10/27 02:19:40;;;;;;;67.97;44.22;;;179.60;2252.80;;;;;;4936103;29;20031;-52
2021/10/27 02:22:07;;;;;;;120.25;66.97;;;179.60;2252.80;;;;;;4935548;29;20583;-52
2021/10/27 02:24:32;;;;;;;94.68;58.28;;;179.60;2252.80;;;;;;4935760;29;20362;-52
2021/10/27 02:26:58;;;;;;;252.30;121.63;;;179.60;2252.80;;;;;;4935845;29;20229;-58
2021/10/27 02:29:25;;;;;;;279.23;131.95;;;179.70;2252.80;;;;;;4935636;29;20032;-52
2021/10/27 02:31:51;;;;;;;131.85;61.65;;;179.70;2252.80;;;;;;4935847;29;20035;-52
2021/10/27 02:34:16;;;;;;;100.75;57.55;;;179.80;2252.80;;;;;;4935613;29;20023;-52
2021/10/27 02:36:42;;;;;;;91.47;52.67;;;179.80;2252.80;;;;;;4935512;29;20035;-52
2021/10/27 02:39:09;;;;;;;52.72;33.58;;;179.80;2252.80;;;;;;4935779;29;20441;-52
2021/10/27 02:41:35;;;;;;;45.90;30.88;;;179.90;2252.80;;;;;;4935488;29;20062;-51
2021/10/27 02:44:01;;;;;;;44.03;31.30;;;179.90;2252.80;;;;;;4935695;29;20060;-52
2021/10/27 02:46:27;;;;;;;119.60;67.18;;;180.00;2252.80;;;;;;4935527;29;20058;-52
2021/10/27 02:48:53;;;;;;;66.20;40.72;;;180.00;2252.80;;;;;;4935294;29;20106;-52
2021/10/27 02:51:18;;;;;;;81.68;49.40;;;180.00;2252.80;;;;;;4935593;29;20042;-52
2021/10/27 02:53:44;;;;;;;159.45;84.55;;;180.00;2252.80;;;;;;4935029;29;20035;-52
2021/10/27 02:56:10;;;;;;;131.82;73.65;;;180.10;2252.80;;;;;;4935566;29;20035;-52
2021/10/27 02:58:36;;;;;;;53.97;32.75;;;180.10;2252.80;;;;;;4935164;29;20028;-52
2021/10/27 03:01:01;;;;;;;208.48;108.95;;;180.10;2252.80;;;;;;4935487;29;20046;-61
2021/10/27 03:03:27;;;;;;;102.82;59.35;;;204.80;2252.80;;;;;;4935284;29;20035;-53
2021/10/27 03:05:53;;;;;;;137.65;73.78;;;204.80;2252.80;;;;;;4935002;29;20067;-61
2021/10/27 03:08:19;;;;;;;52.83;33.35;;;204.80;2252.80;;;;;;4935190;29;20035;-52
2021/10/27 03:10:45;;;;;;;69.32;41.90;;;205.00;2252.80;;;;;;4935004;29;20039;-52
2021/10/27 03:13:11;;;;;;;125.00;78.28;;;204.90;2252.80;;;;;;4935018;29;20530;-52
2021/10/27 03:15:36;;;;;;;231.85;123.63;;;204.90;2252.80;;;;;;4934830;29;20027;-60
2021/10/27 03:18:02;;;;;;;234.93;122.13;;;180.10;2252.80;;;;;;4934131;29;20039;-52
2021/10/27 03:20:28;;;;;;;128.77;75.93;;;180.10;2252.80;;;;;;4934962;29;20023;-52
2021/10/27 03:22:54;;;;;;;121.68;73.20;;;204.80;2252.80;;;;;;4934553;29;20497;-52
2021/10/27 03:25:20;;;;;;;166.40;90.82;;;180.10;2252.80;;;;;;4934863;29;20032;-52
2021/10/27 03:27:45;;;;;;;164.48;90.68;;;204.80;2252.80;;;;;;4934445;29;20475;-52
2021/10/27 03:30:11;;;;;;;92.18;51.50;;;204.80;2252.80;;;;;;4934802;29;20032;-52
2021/10/27 03:32:37;;;;;;;84.30;51.22;;;204.90;2252.80;;;;;;4934768;29;20375;-53
2021/10/27 03:35:04;;;;;;;114.97;65.43;;;204.80;2252.80;;;;;;4934175;29;20083;-53
2021/10/27 03:37:29;;;;;;;108.63;64.80;;;204.90;2252.80;;;;;;4934327;29;20390;-52
2021/10/27 03:39:55;;;;;;;121.97;73.45;;;204.90;2252.80;;;;;;4934333;29;20111;-62
2021/10/27 03:42:21;;;;;;;78.15;46.97;;;204.80;2252.80;;;;;;4934756;29;20038;-52
2021/10/27 03:44:47;;;;;;;166.98;91.57;;;204.80;2252.80;;;;;;4934456;29;20493;-61
2021/10/27 03:47:13;;;;;;;166.13;95.18;;;204.80;2252.80;;;;;;4934244;29;20039;-52
2021/10/27 03:49:38;;;;;;;156.15;97.20;;;204.80;2252.80;;;;;;4934275;29;20030;-59
2021/10/27 03:52:05;;;;;;;157.95;89.32;;;204.90;2252.80;;;;;;4933999;29;20471;-53
2021/10/27 03:54:31;;;;;;;246.43;132.45;;;204.90;2252.80;;;;;;4934194;29;20044;-52
2021/10/27 03:56:57;;;;;;;303.13;147.57;;;204.90;2252.80;;;;;;4934432;29;20028;-52
2021/10/27 03:59:23;;;;;;;388.25;179.13;;;204.90;2252.80;;;;;;4934242;29;20382;-52
2021/10/27 04:01:48;;;;;;;242.82;126.00;;;204.90;2252.80;;;;;;4934456;29;20486;-62
2021/10/27 04:04:14;;;;;;;200.90;112.35;;;204.90;2252.80;;;;;;4933871;29;20023;-53
2021/10/27 04:06:40;;;;;;;128.15;72.43;;;204.80;2252.80;;;;;;4934202;29;20036;-53
2021/10/27 04:09:05;;;;;;;103.43;60.88;;;180.10;2252.80;;;;;;4933829;29;20020;-60
2021/10/27 04:11:31;;;;;;;84.88;52.70;;;180.10;2252.80;;;;;;4934016;29;20031;-61
2021/10/27 04:13:57;;;;;;;121.78;68.30;;;180.10;2252.80;;;;;;4933743;29;20052;-52
2021/10/27 04:16:23;;;;;;;86.60;54.53;;;180.10;2252.80;;;;;;4933866;29;20028;-52
2021/10/27 04:18:48;;;;;;;88.03;53.58;;;180.10;2252.80;;;;;;4933835;29;20038;-58
2021/10/27 04:21:14;;;;;;;94.82;62.92;;;180.10;2252.80;;;;;;4933698;29;20023;-52
2021/10/27 04:23:40;;;;;;;108.50;70.70;;;179.90;2252.80;;;;;;4933660;29;20142;-52
2021/10/27 04:26:06;;;;;;;87.53;56.50;;;179.90;2252.80;;;;;;4933371;29;20039;-52
2021/10/27 04:28:31;;;;;;;98.53;62.47;;;179.80;2252.80;;;;;;4933170;29;20116;-51
2021/10/27 04:31:01;;;;;;;116.25;79.63;;;179.80;2252.80;;;;;;4933476;29;20032;-52
2021/10/27 04:33:27;;;;;;;129.93;91.43;;;179.80;2252.80;;;;;;4933565;29;20059;-52
2021/10/27 04:35:53;;;;;;;141.95;100.47;;;179.80;2252.80;;;;;;4933499;29;20431;-52
2021/10/27 04:38:21;;;;;;;133.32;92.50;;;179.80;2252.80;;;;;;4933682;29;20070;-57
2021/10/27 04:40:47;;;;;;;103.20;68.90;;;179.80;2252.80;;;;;;4933544;29;20032;-52
2021/10/27 04:43:13;;;;;;;89.32;62.05;;;179.90;2252.80;;;;;;4933263;29;20486;-52
2021/10/27 04:45:39;;;;;;;74.03;50.90;;;179.90;2252.80;;;;;;4933204;29;20031;-52
2021/10/27 04:48:07;;;;;;;73.57;54.60;;;180.00;2252.80;;;;;;4933159;29;20470;-52
2021/10/27 04:50:33;;;;;;;66.85;45.60;;;180.00;2252.80;;;;;;4933067;29;20038;-54
2021/10/27 04:52:59;;;;;;;77.45;57.95;;;180.00;2252.80;;;;;;4933421;29;20483;-56
2021/10/27 04:55:25;;;;;;;121.82;87.93;;;180.00;2252.80;;;;;;4933125;29;20103;-60
2021/10/27 04:57:50;;;;;;;57.15;40.05;;;180.00;2252.80;;;;;;4933484;29;20032;-59
2021/10/27 05:00:17;;;;;;;46.83;36.90;;;180.10;2252.80;;;;;;4932676;29;20039;-59
2021/10/27 05:02:43;;;;;;;39.25;31.38;;;180.10;2252.80;;;;;;4932949;29;20028;-52
2021/10/27 05:05:09;;;;;;;44.45;33.13;;;204.80;2252.80;;;;;;4933209;29;20066;-55
2021/10/27 05:07:35;;;;;;;141.38;103.25;;;204.90;2252.80;;;;;;4932814;29;20487;-60
2021/10/27 05:10:01;;;;;;;93.18;69.75;;;204.90;2252.80;;;;;;4933064;29;20027;-58
2021/10/27 05:12:27;;;;;;;83.45;56.42;;;204.90;2252.80;;;;;;4932874;29;20047;-54
2021/10/27 05:14:54;;;;;;;91.45;67.35;;;204.90;2252.80;;;;;;4932916;29;20038;-52
2021/10/27 05:17:20;;;;;;;73.88;57.25;;;204.90;2252.80;;;;;;4933317;29;20023;-52
2021/10/27 05:19:47;;;;;;;43.65;33.28;;;204.80;2252.80;;;;;;4932666;29;20035;-52
2021/10/27 05:22:15;;;;;;;133.10;76.22;;;205.00;2252.80;;;;;;4932674;29;20821;-52
2021/10/27 05:24:42;;;;;;;209.85;134.43;;;205.00;2252.80;;;;;;4932984;29;20087;-52
2021/10/27 05:27:09;;;;;;;201.65;136.80;;;205.00;2252.80;;;;;;4933034;29;20043;-51
2021/10/27 05:29:35;;;;;;;94.13;64.60;;;205.10;2252.80;;;;;;4932722;29;20023;-52
2021/10/27 05:32:03;;;;;;;91.75;62.80;;;205.20;2252.80;;;;;;4932964;29;20043;-53
2021/10/27 05:34:29;;;;;;;95.30;72.13;;;205.30;2252.80;;;;;;4932852;29;20428;-63
2021/10/27 05:36:54;;;;;;;52.97;36.95;;;205.40;2252.80;;;;;;4932711;29;20067;-54
2021/10/27 05:39:20;;;;;;;53.70;38.35;;;205.50;2252.80;;;;;;4932739;29;20070;-54
2021/10/27 05:41:47;;;;;;;61.80;46.45;;;205.60;2252.80;;;;;;4935617;29;20036;-62
2021/10/27 05:44:13;;;;;;;57.72;34.40;;;205.70;2252.80;;;;;;4936555;29;20032;-54
2021/10/27 05:46:42;;;;;;;40.13;31.98;;;230.40;2252.80;;;;;;4936723;29;20040;-60
2021/10/27 05:51:46;;;;;;;49.55;39.50;;;230.60;2252.80;;;;;;4936381;29;20031;-53
2021/10/27 05:57:13;;;;;;;51.47;37.33;;;230.60;2252.80;;;;;;4877717;29;20713;-56
2021/10/27 05:59:39;;;;;;;78.85;54.28;;;230.70;2252.80;;;;;;4924022;29;20505;-54
2021/10/27 06:02:05;;;;;;;134.27;90.93;;;230.90;2252.80;;;;;;4936262;29;20035;-53
2021/10/27 06:04:31;;;;;;;109.93;77.07;;;230.90;2252.80;;;;;;4936305;29;20023;-53
2021/10/27 06:06:57;;;;;;;84.40;60.38;;;231.10;2252.80;;;;;;4935906;29;20036;-53
2021/10/27 06:09:22;;;;;;;66.80;48.72;;;231.20;2252.80;;;;;;4936364;29;20028;-53
2021/10/27 06:11:48;;;;;;;89.13;67.72;;;256.10;2252.80;;;;;;4936372;29;20497;-53
2021/10/27 06:14:15;;;;;;;142.15;117.50;;;256.20;2252.80;;;;;;4935903;29;20091;-53
2021/10/27 06:16:41;;;;;;;72.43;56.33;;;256.30;2252.80;;;;;;4936142;29;20031;-53
2021/10/27 06:19:07;;;;;;;61.30;49.13;;;256.30;2252.80;;;;;;4935815;29;20516;-53
2021/10/27 06:21:33;;;;;;;80.18;62.30;;;256.50;2252.80;;;;;;4935760;29;20066;-54
2021/10/27 06:23:59;;;;;;;79.78;53.88;;;256.50;2252.80;;;;;;4935899;29;20038;-53
2021/10/27 06:26:25;;;;;;;56.17;42.65;;;256.60;2252.80;;;;;;4935710;29;20039;-61
2021/10/27 06:29:00;;;;;;;82.43;63.83;;;256.70;2252.80;;;;;;4936077;29;20027;-59
2021/10/27 06:36:56;;;;;;;76.75;58.80;;;256.90;2252.80;;;;;;4935648;29;20490;-54
2021/10/27 06:47:35;;;;;;;173.65;112.00;;;282.00;2278.40;;;;;;4935428;29;20451;-61
2021/10/27 06:50:00;;;;;;;152.52;105.68;;;282.10;2278.40;;;;;;4935581;29;20463;-53
2021/10/27 06:52:26;;;;;;;69.00;45.85;;;282.20;2278.40;;;;;;4934259;29;20073;-53
2021/10/27 06:54:52;;;;;;;87.47;59.92;;;282.10;2278.40;;;;;;4935651;29;20030;-54
2021/10/27 06:57:22;;;;;;;73.43;53.42;;;282.30;2278.40;;;;;;4935332;29;20038;-53
2021/10/27 06:59:50;;;;;;;69.55;48.88;;;282.40;2278.40;;;;;;4935471;29;20031;-54
2021/10/27 07:15:35;;;;;;;100.65;79.28;;;307.70;2304.00;;;;;;4895277;29;20124;-53
2021/10/27 07:18:02;;;;;;;133.40;106.63;;;307.90;2304.00;;;;;;4895147;29;20076;-53
2021/10/27 07:20:28;;;;;;;131.80;101.90;;;333.50;2329.60;;;;;;4894851;29;20040;-54
2021/10/27 07:23:02;;;;;;;173.43;137.05;;;358.50;2329.60;;;;;;4894739;29;20056;-54
2021/10/27 07:25:36;;;;;;;195.90;154.48;;;359.00;2329.60;;;;;;4894950;29;20047;-54
2021/10/27 07:28:03;;;;;;;187.60;141.48;;;384.20;2329.60;;;;;;4894696;29;20055;-54
2021/10/27 07:30:29;;;;;;;172.25;133.90;;;409.60;2355.20;;;;;;4894902;29;20568;-54
2021/10/27 07:32:57;;;;;;;128.20;107.70;;;435.20;2355.20;;;;;;4894606;29;20124;-52
2021/10/27 07:35:31;;;;;;;117.45;97.22;;;435.70;2355.20;;;;;;4894588;29;20033;-52
2021/10/27 07:40:43;;;;;;;144.48;117.93;;;461.00;2380.80;;;;;;4894687;29;20100;-52
2021/10/27 07:43:20;;;;;;;121.28;102.30;;;486.40;2380.80;;;;;;4894724;29;20036;-52
2021/10/27 07:45:47;;;;;;;80.45;71.45;;;487.20;2278.40;;;;;;4894661;29;20391;-52
2021/10/27 07:48:15;;;;;;;84.05;74.65;;;487.30;2252.80;;;;;;4933408;29;20044;-52
2021/10/27 07:50:41;;;;;;;83.10;72.00;;;512.60;2176.00;;;;;;4934593;29;20027;-52
2021/10/27 07:53:10;;;;;;;93.78;81.18;;;512.70;2150.40;;;;;;4934161;29;20042;-60
2021/10/27 07:55:41;;;;;;;95.25;85.20;;;512.90;2099.20;;;;;;4934184;29;20023;-55
2021/10/27 07:58:08;;;;;;;131.80;115.68;;;538.20;2099.20;;;;;;4934297;29;20023;-52
2021/10/27 08:00:34;;;;;;;135.60;117.78;;;512.90;2048.00;;;;;;4934168;29;20025;-53
2021/10/27 08:03:01;;;;;;;185.55;155.10;;;512.50;2073.60;;;;;;4933980;29;20103;-52
2021/10/27 08:05:38;;;;;;;193.20;165.48;;;512.40;2073.60;;;;;;4934332;29;20083;-60
2021/10/27 08:08:04;;;;;;;190.98;162.75;;;512.80;2048.00;;;;;;4934123;29;20038;-52
2021/10/27 08:10:32;;;;;;;181.18;156.23;;;512.40;2048.00;;;;;;4934051;29;20048;-58
2021/10/27 08:12:59;;;;;;;151.02;134.38;;;512.30;2073.60;;;;;;4934151;29;20735;-52
2021/10/27 08:15:26;;;;;;;159.02;139.52;;;487.30;2073.60;;;;;;4933733;29;20031;-53
2021/10/27 08:17:52;;;;;;;99.55;86.32;;;512.50;2048.00;;;;;;4933807;29;20028;-52
2021/10/27 08:20:23;;;;;;;129.25;110.40;;;512.30;2022.40;;;;;;4933883;29;20382;-58
2021/10/27 08:22:56;;;;;;;91.10;77.28;;;487.30;2048.00;;;;;;4933818;29;20028;-53
2021/10/27 08:25:29;;;;;;;90.22;73.82;;;512.30;2022.40;;;;;;4933811;29;20123;-61
2021/10/27 08:28:37;;;;;;;61.65;54.80;;;512.20;2022.40;;;;;;4933661;29;20394;-53
2021/10/27 08:36:07;;;;;;;73.63;63.00;;;487.10;2022.40;;;;;;4933519;29;20030;-52
2021/10/27 08:38:34;;;;;;;90.20;75.25;;;487.30;2022.40;;;;;;4933242;29;20415;-53
2021/10/27 08:41:01;;;;;;;95.50;84.18;;;537.90;1996.80;;;;;;4933567;29;20039;-53
2021/10/27 08:43:32;;;;;;;90.35;79.97;;;538.20;1971.20;;;;;;4933519;29;20471;-59
2021/10/27 08:46:01;;;;;;;93.47;82.95;;;563.20;1920.00;;;;;;4933441;29;20091;-53
2021/10/27 08:48:29;;;;;;;42.63;38.05;;;563.70;1868.80;;;;;;4933131;29;20091;-52
2021/10/27 08:50:55;;;;;;;71.05;62.10;;;563.90;1843.20;;;;;;4933476;29;20062;-56
2021/10/27 08:53:23;;;;;;;72.38;63.65;;;538.50;1843.20;;;;;;4933488;29;20031;-55
2021/10/27 08:55:50;;;;;;;51.83;45.83;;;563.50;1894.40;;;;;;4933376;29;20486;-57
2021/10/27 08:58:31;;;;;;;38.70;34.63;;;563.70;1843.20;;;;;;4932947;29;20162;-61
2021/10/27 09:01:09;;;;;;;33.33;27.95;;;563.70;1843.20;;;;;;4933080;29;20743;-52
2021/10/27 09:04:04;;;;;;;32.85;28.83;;;563.40;1843.20;;;;;;4933092;29;20467;-57
2021/10/27 09:14:53;;;;;;;34.67;30.13;;;512.80;1868.80;;;;;;4892874;29;20399;-52
2021/10/27 10:05:12;;;;;;;80.45;60.38;;;461.10;2073.60;;;;;;4837844;29;20037;-52
2021/10/27 10:07:39;;;;;;;37.25;30.02;;;435.60;2099.20;;;;;;4836892;29;20054;-52
2021/10/27 10:10:07;;;;;;;168.13;129.30;;;435.30;2150.40;;;;;;4836849;29;20034;-60
2021/10/27 10:12:38;;;;;;;51.47;41.40;;;410.50;2176.00;;;;;;4836815;29;20129;-52
2021/10/27 10:15:05;;;;;;;65.88;49.25;;;410.30;2227.20;;;;;;4871183;29;20048;-52
2021/10/27 10:17:34;;;;;;;47.92;36.47;;;410.00;2278.40;;;;;;4874105;29;20074;-52
2021/10/27 10:20:01;;;;;;;54.72;37.30;;;384.90;2278.40;;;;;;4873831;29;20033;-52
2021/10/27 10:22:33;;;;;;;157.52;111.20;;;409.70;2278.40;;;;;;4896235;29;20054;-51
2021/10/27 10:25:22;;;;;;;104.47;75.18;;;410.10;2252.80;;;;;;4951997;29;20115;-52
2021/10/27 10:27:49;;;;;;;70.68;49.45;;;409.90;2304.00;;;;;;4942391;28;20047;-53
2021/10/27 10:30:46;;;;;;;50.00;36.33;;;384.90;2329.60;;;;;;4954729;29;20027;-52
2021/10/27 10:33:14;;;;;;;43.03;33.13;;;384.60;2329.60;;;;;;4954903;29;20034;-53
2021/10/27 10:36:08;;;;;;;49.50;38.08;;;384.40;2329.60;;;;;;4954748;29;20035;-56
2021/10/27 10:44:57;;;;;;;42.55;28.58;;;384.70;2329.60;;;;;;4954353;29;20046;-54
2021/10/27 10:56:38;;;;;;;61.22;44.80;;;384.60;2329.60;;;;;;4954352;28;20061;-53
2021/10/27 11:46:26;;;;;;;45.00;33.30;;;384.90;2329.60;;;;;;4874035;29;20037;-53
2021/10/27 11:51:18;;;;;;;46.70;36.70;;;409.70;2355.20;;;;;;4875766;29;20028;-61
2021/10/27 11:53:46;;;;;;;42.97;36.08;;;410.00;2355.20;;;;;;4875512;29;20056;-62
2021/10/27 11:56:12;;;;;;;53.55;42.47;;;410.00;2355.20;;;;;;4875773;29;20481;-55
2021/10/27 11:58:41;;;;;;;76.85;53.35;;;409.90;2355.20;;;;;;4875629;29;20029;-53
2021/10/27 12:01:22;;;;;;;49.75;37.45;;;409.90;2355.20;;;;;;4875526;29;20041;-57
2021/10/27 12:03:47;;;;;;;64.97;47.92;;;410.00;2355.20;;;;;;4875418;29;20384;-53
2021/10/27 12:19:12;;;;;;;63.67;48.33;;;384.80;2329.60;;;;;;4893748;29;20028;-57
2021/10/27 12:21:46;;;;;;;63.50;47.42;;;384.50;2329.60;;;;;;4933913;29;20032;-55
2021/10/27 12:24:16;;;;;;;43.60;31.50;;;384.80;2329.60;;;;;;4933607;29;20034;-53
2021/10/27 12:26:44;;;;;;;31.90;24.60;;;409.60;2355.20;;;;;;4933654;29;20126;-53
2021/10/27 12:29:23;;;;;;;32.28;26.45;;;409.60;2355.20;;;;;;4933583;29;20823;-58
2021/10/27 12:32:22;;;;;;;46.25;35.28;;;409.60;2355.20;;;;;;4933726;29;20031;-53
2021/10/27 12:34:49;;;;;;;39.85;30.90;;;409.60;2355.20;;;;;;4893563;29;20041;-53
2021/10/27 12:37:34;;;;;;;76.00;49.60;;;409.70;2355.20;;;;;;4893396;29;20088;-56
2021/10/27 12:42:56;;;;;;;51.75;39.72;;;409.60;2355.20;;;;;;4893478;29;20033;-54
2021/10/27 12:45:33;;;;;;;42.58;30.10;;;409.70;2355.20;;;;;;4890642;29;20095;-56
2021/10/27 12:48:04;;;;;;;33.45;27.27;;;384.70;2329.60;;;;;;4891518;29;20702;-53
2021/10/27 12:50:31;;;;;;;38.78;29.73;;;384.70;2329.60;;;;;;4890731;29;20024;-54
2021/10/27 12:52:59;;;;;;;50.75;34.97;;;384.90;2329.60;;;;;;4891235;29;20037;-52
2021/10/27 12:55:34;;;;;;;40.00;28.77;;;409.60;2355.20;;;;;;4891388;29;20029;-53
2021/10/27 12:58:07;;;;;;;38.05;27.25;;;409.70;2355.20;;;;;;4890972;29;20369;-53
2021/10/27 13:03:30;;;;;;;35.08;28.27;;;410.00;2355.20;;;;;;4891182;29;20515;-54
2021/10/27 13:06:26;;;;;;;38.03;28.85;;;410.10;2329.60;;;;;;4891137;29;20052;-53
2021/10/27 13:11:37;;;;;;;49.33;37.30;;;409.90;2329.60;;;;;;4926275;29;20550;-53
2021/10/27 13:30:11;;;;;;;41.33;32.63;;;409.90;2355.20;;;;;;4931545;29;20091;-59
2021/10/27 13:32:42;;;;;;;39.25;33.35;;;409.80;2355.20;;;;;;4931206;29;20031;-54
2021/10/27 13:35:09;;;;;;;150.27;117.95;;;409.90;2355.20;;;;;;4925344;29;20422;-52
2021/10/27 13:37:35;;;;;;;43.10;32.53;;;409.90;2355.20;;;;;;4930763;29;20020;-59
2021/10/27 13:40:03;;;;;;;37.00;27.30;;;409.90;2355.20;;;;;;4931238;29;20083;-53
2021/10/27 13:42:43;;;;;;;38.45;27.95;;;410.00;2355.20;;;;;;4931214;29;20111;-52
2021/10/27 13:45:16;;;;;;;36.40;28.70;;;410.10;2355.20;;;;;;4931432;29;20042;-53
2021/10/27 13:58:42;;;;;;;41.88;26.83;;;409.60;2329.60;;;;;;4931357;29;20042;-53
2021/10/27 14:09:40;;;;;;;51.10;36.55;;;384.70;2329.60;;;;;;4875701;29;20134;-58
2021/10/27 14:20:20;;;;;;;49.70;35.33;;;384.60;2329.60;;;;;;4875776;29;20148;-58
2021/10/27 15:19:54;;;;;;;87.53;67.13;;;359.00;2329.60;;;;;;4933496;29;20442;-53
2021/10/27 15:33:06;;;;;;;308.10;228.20;;;358.90;2329.60;;;;;;4933107;29;20379;-53
2021/10/27 15:35:41;;;;;;;203.93;144.60;;;358.90;2329.60;;;;;;4932946;29;20478;-53
2021/10/27 15:51:52;;;;;;;154.13;113.22;;;358.70;2329.60;;;;;;4918921;29;20054;-50
2021/10/27 15:54:19;;;;;;;142.55;98.45;;;358.60;2329.60;;;;;;4934343;29;20038;-51
2021/10/27 15:56:45;;;;;;;129.13;92.68;;;358.50;2329.60;;;;;;4934369;29;20070;-51
2021/10/27 15:59:11;;;;;;;169.50;126.93;;;358.60;2329.60;;;;;;4934548;29;20044;-50
2021/10/27 16:01:37;;;;;;;212.38;173.85;;;358.70;2329.60;;;;;;4934419;29;20051;-50
2021/10/27 16:04:04;;;;;;;178.93;132.63;;;358.70;2329.60;;;;;;4934151;29;20035;-51
2021/10/27 16:06:33;;;;;;;149.27;112.57;;;358.70;2329.60;;;;;;4933667;29;20087;-51
2021/10/27 16:09:00;;;;;;;121.80;95.05;;;358.70;2329.60;;;;;;4933613;29;20043;-49
2021/10/27 16:11:25;;;;;;;118.45;92.30;;;358.70;2329.60;;;;;;4933579;29;20039;-55
2021/10/27 16:13:51;;;;;;;123.65;98.57;;;358.70;2329.60;;;;;;4933827;29;20051;-56
2021/10/27 16:16:17;;;;;;;145.68;118.00;;;358.70;2329.60;;;;;;4933988;29;20031;-53
2021/10/27 16:18:44;;;;;;;145.60;112.28;;;358.70;2329.60;;;;;;4933869;29;20054;-51
2021/10/27 16:21:10;;;;;;;144.02;114.32;;;358.70;2329.60;;;;;;4933806;29;20035;-50
2021/10/27 16:23:36;;;;;;;149.25;119.30;;;358.70;2329.60;;;;;;4933740;29;20394;-52
2021/10/27 16:26:05;;;;;;;150.50;118.43;;;358.80;2329.60;;;;;;4933433;29;20032;-52
2021/10/27 16:28:32;;;;;;;158.93;122.15;;;358.70;2329.60;;;;;;4933637;29;20035;-55
2021/10/27 16:31:00;;;;;;;150.80;119.53;;;358.70;2329.60;;;;;;4933478;29;20485;-50
2021/10/27 16:33:26;;;;;;;135.63;102.80;;;358.60;2329.60;;;;;;4933108;29;20442;-60
2021/10/27 16:35:53;;;;;;;142.05;105.10;;;358.70;2329.60;;;;;;4914785;29;20473;-50
2021/10/27 16:38:20;;;;;;;158.30;119.18;;;358.70;2329.60;;;;;;4914649;29;20027;-51
2021/10/27 16:40:46;;;;;;;132.77;105.95;;;358.50;2329.60;;;;;;4913858;29;20032;-52
2021/10/27 16:43:12;;;;;;;150.60;106.43;;;358.50;2329.60;;;;;;4912467;29;20024;-49
2021/10/27 16:45:38;;;;;;;164.63;126.95;;;358.50;2329.60;;;;;;4913244;29;20024;-51
2021/10/27 16:48:04;;;;;;;170.88;123.95;;;358.50;2329.60;;;;;;4912873;29;20443;-50
2021/10/27 16:50:31;;;;;;;237.40;161.75;;;358.50;2329.60;;;;;;4912987;29;20036;-59
2021/10/27 16:52:58;;;;;;;140.95;105.38;;;358.40;2329.60;;;;;;4912649;29;20040;-50
2021/10/27 16:55:25;;;;;;;212.57;159.57;;;333.70;2329.60;;;;;;4912298;29;20040;-58
2021/10/27 16:57:56;;;;;;;182.45;137.15;;;333.70;2329.60;;;;;;4912825;29;20091;-59
2021/10/27 17:00:28;;;;;;;204.23;155.45;;;333.70;2329.60;;;;;;4913030;29;20108;-50
2021/10/27 17:02:55;;;;;;;248.23;187.05;;;333.60;2329.60;;;;;;4912552;29;20038;-54
2021/10/27 17:05:21;;;;;;;312.33;239.05;;;333.60;2329.60;;;;;;4912737;29;20107;-51